Time;durP1;ratioP1;P1;durP2;ratioP2;P2;SDS_P1;SDS_P2;PMS_P1;PMS_P2;Temp;Humidity;BMP_temperature;BMP_pressure;BME280_temperature;BME280_humidity;BME280_pressure;Samples;Min_cycle;Max_cycle;Signal;HPM_P1;HPM_P2
2023/05/21 00:01:22;;;;;;;10.07;7.43;;;11.00;99.90;;;;;;5127902;27;20032;-88
2023/05/21 00:03:49;;;;;;;11.13;8.18;;;11.10;99.90;;;;;;5091153;28;20023;-88
2023/05/21 00:06:15;;;;;;;11.23;7.33;;;11.10;99.90;;;;;;5097673;28;20020;-86
2023/05/21 00:08:41;;;;;;;9.82;7.72;;;11.20;99.90;;;;;;5123436;28;20020;-86
2023/05/21 00:11:08;;;;;;;10.57;7.47;;;11.20;99.90;;;;;;5114371;28;20023;-86
2023/05/21 00:13:34;;;;;;;9.55;8.10;;;11.20;99.90;;;;;;5126764;27;20023;-88
2023/05/21 00:16:00;;;;;;;9.98;7.60;;;11.10;99.90;;;;;;5137446;27;20027;-87
2023/05/21 00:18:26;;;;;;;9.73;8.02;;;11.10;99.90;;;;;;5115846;28;20460;-87
2023/05/21 00:20:52;;;;;;;9.02;7.80;;;11.10;99.90;;;;;;5116212;28;20031;-87
2023/05/21 00:23:18;;;;;;;13.45;8.73;;;11.10;99.90;;;;;;5132475;27;20095;-87
2023/05/21 00:25:45;;;;;;;8.82;7.78;;;11.10;99.90;;;;;;5129056;28;20012;-86
2023/05/21 00:28:11;;;;;;;11.52;8.27;;;11.20;99.90;;;;;;5123390;28;20035;-86
2023/05/21 00:30:38;;;;;;;10.63;7.45;;;11.20;99.90;;;;;;5113064;28;20076;-88
2023/05/21 00:33:04;;;;;;;11.15;7.88;;;11.20;99.90;;;;;;5129328;28;20020;-90
2023/05/21 00:35:30;;;;;;;9.07;8.13;;;11.20;99.90;;;;;;5127272;28;20027;-89
2023/05/21 00:37:57;;;;;;;9.35;8.20;;;11.20;99.90;;;;;;5111321;27;20113;-90
2023/05/21 00:40:23;;;;;;;9.93;8.70;;;11.30;99.90;;;;;;5098820;28;20028;-88
2023/05/21 00:42:49;;;;;;;11.73;8.63;;;11.30;99.90;;;;;;5109524;28;20067;-87
2023/05/21 00:45:15;;;;;;;11.85;7.95;;;11.40;99.90;;;;;;5097608;28;20114;-89
2023/05/21 00:47:42;;;;;;;10.63;7.45;;;11.40;99.90;;;;;;5114365;28;20030;-88
2023/05/21 00:50:09;;;;;;;8.50;7.43;;;11.40;99.90;;;;;;5142865;27;20031;-86
2023/05/21 00:52:40;;;;;;;11.73;7.82;;;11.50;99.90;;;;;;5122336;28;20027;-88
2023/05/21 00:55:07;;;;;;;11.55;8.45;;;11.50;99.90;;;;;;5129545;28;20023;-85
2023/05/21 00:57:35;;;;;;;15.60;8.30;;;11.50;99.90;;;;;;5117196;28;20035;-87
2023/05/21 01:00:05;;;;;;;11.55;8.70;;;11.50;99.90;;;;;;5108106;28;20024;-86
2023/05/21 01:02:33;;;;;;;10.35;8.35;;;11.60;99.90;;;;;;5100061;28;20395;-88
2023/05/21 01:04:59;;;;;;;;;;;11.60;99.90;;;;;;5107453;28;20024;-87
2023/05/21 01:07:25;;;;;;;10.30;7.90;;;11.50;99.90;;;;;;5099150;28;20022;-89
2023/05/21 01:09:53;;;;;;;9.52;7.82;;;11.50;99.90;;;;;;5128043;27;20023;-90
2023/05/21 01:12:22;;;;;;;;;;;11.50;99.90;;;;;;5108911;27;20086;-89
2023/05/21 01:14:49;;;;;;;9.00;7.65;;;11.60;99.90;;;;;;5125280;27;19912;-88
2023/05/21 01:17:15;;;;;;;12.32;8.68;;;11.50;99.90;;;;;;5125790;27;20023;-87
2023/05/21 01:19:44;;;;;;;8.52;7.72;;;11.60;99.90;;;;;;5139641;27;20076;-88
2023/05/21 01:22:13;;;;;;;9.82;8.13;;;11.60;99.90;;;;;;5105548;27;20047;-89
2023/05/21 01:24:40;;;;;;;10.70;8.63;;;11.50;99.90;;;;;;5112359;28;20023;-91
2023/05/21 01:27:09;;;;;;;9.55;8.10;;;11.60;99.90;;;;;;5105312;27;20540;-88
2023/05/21 01:29:35;;;;;;;9.32;8.32;;;11.50;99.90;;;;;;5119649;28;20038;-89
2023/05/21 01:32:37;;;;;;;10.05;8.63;;;11.50;99.90;;;;;;5138732;28;20015;-85
2023/05/21 01:35:26;;;;;;;10.63;8.88;;;11.50;99.90;;;;;;5121779;28;20040;-89
2023/05/21 01:37:57;;;;;;;11.23;9.88;;;11.50;99.90;;;;;;5030444;28;20114;-89
2023/05/21 01:40:37;;;;;;;11.45;10.25;;;11.40;99.90;;;;;;5043235;28;20030;-88
2023/05/21 01:43:06;;;;;;;12.23;10.05;;;11.30;99.90;;;;;;5031941;28;20030;-89
2023/05/21 01:45:35;;;;;;;11.85;10.38;;;11.20;99.90;;;;;;5040454;28;20021;-89
2023/05/21 01:48:04;;;;;;;11.95;10.32;;;11.20;99.90;;;;;;5051014;28;20059;-90
2023/05/21 01:50:31;;;;;;;11.18;9.77;;;11.20;99.90;;;;;;5057032;28;20053;-87
2023/05/21 01:52:57;;;;;;;12.73;11.43;;;11.10;99.90;;;;;;5037683;28;20009;-88
2023/05/21 01:55:23;;;;;;;17.27;12.55;;;11.10;99.90;;;;;;5034772;28;20537;-93
2023/05/21 01:57:52;;;;;;;14.18;12.13;;;11.00;99.90;;;;;;5032554;28;20490;-89
2023/05/21 02:00:22;;;;;;;15.73;12.35;;;11.00;99.90;;;;;;5049666;28;20389;-91
2023/05/21 02:02:49;;;;;;;15.63;13.27;;;11.00;99.90;;;;;;5052014;28;20038;-91
2023/05/21 02:05:21;;;;;;;14.23;12.77;;;11.00;99.90;;;;;;5040458;28;20029;-91
2023/05/21 02:07:50;;;;;;;16.08;14.48;;;11.10;99.90;;;;;;5019112;28;20014;-84
2023/05/21 02:10:17;;;;;;;14.90;12.95;;;11.20;99.90;;;;;;5056018;28;20025;-89
2023/05/21 02:12:43;;;;;;;15.45;13.00;;;11.20;99.90;;;;;;5012133;28;20053;-89
2023/05/21 02:15:09;;;;;;;19.30;13.45;;;11.20;99.90;;;;;;5019432;28;20057;-91
2023/05/21 02:17:37;;;;;;;16.33;12.65;;;11.20;99.90;;;;;;5047999;28;20032;-91
2023/05/21 02:20:10;;;;;;;;;;;11.20;99.90;;;;;;5059539;28;20409;-90
2023/05/21 02:22:44;;;;;;;15.40;12.52;;;11.20;99.90;;;;;;5087448;28;19919;-89
2023/05/21 02:25:11;;;;;;;15.77;14.05;;;11.20;99.90;;;;;;5065593;28;20005;-92
2023/05/21 02:27:41;;;;;;;15.05;12.80;;;11.20;99.90;;;;;;5065331;28;20032;-89
2023/05/21 02:30:09;;;;;;;16.33;13.82;;;11.20;99.90;;;;;;5054643;28;20081;-89
2023/05/21 02:32:36;;;;;;;15.65;13.65;;;11.10;99.90;;;;;;5079754;28;20070;-87
2023/05/21 02:35:03;;;;;;;13.35;11.98;;;11.20;99.90;;;;;;5065433;28;20017;-89
2023/05/21 02:37:32;;;;;;;15.65;14.02;;;11.10;99.90;;;;;;5062908;28;20047;-88
2023/05/21 02:39:59;;;;;;;17.98;14.25;;;11.20;99.90;;;;;;5047683;28;20191;-90
2023/05/21 02:42:25;;;;;;;14.80;12.75;;;11.20;99.90;;;;;;5062166;28;20078;-90
2023/05/21 02:44:51;;;;;;;15.88;14.23;;;11.20;99.90;;;;;;5105013;28;20130;-87
2023/05/21 02:47:22;;;;;;;18.42;13.00;;;11.30;99.90;;;;;;5154923;28;20023;-88
2023/05/21 02:49:50;;;;;;;15.77;13.75;;;11.30;99.90;;;;;;5135554;28;20049;-87
2023/05/21 02:52:17;;;;;;;15.63;13.32;;;11.40;99.90;;;;;;5149478;27;20059;-88
2023/05/21 02:54:45;;;;;;;15.95;13.40;;;11.40;99.90;;;;;;5135903;27;20011;-87
2023/05/21 02:57:11;;;;;;;17.10;14.85;;;11.40;99.90;;;;;;5127451;27;20092;-89
2023/05/21 02:59:37;;;;;;;20.02;15.38;;;11.40;99.90;;;;;;5120364;27;20019;-87
2023/05/21 03:02:04;;;;;;;21.45;16.83;;;11.50;99.90;;;;;;5126790;27;20035;-88
2023/05/21 03:04:30;;;;;;;20.88;16.85;;;11.60;99.90;;;;;;5106592;28;20043;-88
2023/05/21 03:07:00;;;;;;;20.67;18.45;;;11.60;99.90;;;;;;5110888;28;20035;-88
2023/05/21 03:09:27;;;;;;;22.15;18.13;;;11.70;99.90;;;;;;5083340;28;20025;-88
2023/05/21 03:11:52;;;;;;;19.83;16.38;;;11.80;99.90;;;;;;5079755;28;20032;-89
2023/05/21 03:14:21;;;;;;;22.55;17.75;;;11.90;99.90;;;;;;5089884;28;20035;-87
2023/05/21 03:16:47;;;;;;;18.95;16.38;;;12.00;99.90;;;;;;5085642;28;20024;-87
2023/05/21 03:19:15;;;;;;;19.85;15.98;;;12.10;99.90;;;;;;5066736;28;20070;-89
2023/05/21 03:21:41;;;;;;;23.25;16.75;;;12.10;99.90;;;;;;5076908;28;20052;-88
2023/05/21 03:24:12;;;;;;;19.65;17.55;;;12.20;99.90;;;;;;5070710;28;20036;-89
2023/05/21 03:26:38;;;;;;;20.65;16.10;;;12.20;99.90;;;;;;5095464;28;20017;-88
2023/05/21 03:29:04;;;;;;;19.02;15.45;;;12.20;99.90;;;;;;5089409;28;20029;-88
2023/05/21 03:31:30;;;;;;;18.35;15.18;;;12.20;99.90;;;;;;5074792;28;20036;-88
2023/05/21 03:33:56;;;;;;;22.92;17.13;;;12.20;99.90;;;;;;5061492;28;20036;-88
2023/05/21 03:36:23;;;;;;;17.55;15.75;;;12.20;99.90;;;;;;5079909;28;20017;-89
2023/05/21 03:38:49;;;;;;;28.15;19.80;;;12.20;99.90;;;;;;5085123;28;20024;-88
2023/05/21 03:41:15;;;;;;;23.05;18.30;;;12.10;99.90;;;;;;5125552;27;20023;-88
2023/05/21 03:43:41;;;;;;;22.65;19.15;;;12.20;99.90;;;;;;5115868;27;20442;-86
2023/05/21 03:46:07;;;;;;;21.42;17.55;;;12.20;99.90;;;;;;5122166;27;20046;-87
2023/05/21 03:48:33;;;;;;;20.33;17.60;;;12.30;99.90;;;;;;5119927;27;20020;-87
2023/05/21 03:50:58;;;;;;;21.15;15.82;;;12.30;99.90;;;;;;5127205;27;20056;-88
2023/05/21 03:53:24;;;;;;;19.60;16.48;;;12.30;99.90;;;;;;5102178;28;20028;-88
2023/05/21 03:55:53;;;;;;;29.00;19.90;;;12.20;99.90;;;;;;5123562;28;20024;-87
2023/05/21 03:58:23;;;;;;;21.20;17.02;;;12.10;99.90;;;;;;5104567;28;20030;-87
2023/05/21 04:00:49;;;;;;;28.95;22.95;;;12.10;99.90;;;;;;5122311;28;20020;-87
2023/05/21 04:03:15;;;;;;;19.13;14.10;;;12.00;99.90;;;;;;5112460;28;20040;-88
2023/05/21 04:05:44;;;;;;;17.63;13.48;;;12.00;99.90;;;;;;5149819;27;20003;-90
2023/05/21 04:08:12;;;;;;;18.08;13.85;;;12.00;99.90;;;;;;5125111;28;20066;-89
2023/05/21 04:10:38;;;;;;;16.80;13.77;;;12.10;99.90;;;;;;5132330;28;20027;-88
2023/05/21 04:13:05;;;;;;;16.08;12.52;;;12.20;99.90;;;;;;5127673;27;20057;-88
2023/05/21 04:15:33;;;;;;;15.15;13.15;;;12.20;99.90;;;;;;5148200;27;20023;-89
2023/05/21 04:18:00;;;;;;;15.07;11.68;;;12.20;99.90;;;;;;5126000;27;20027;-88
2023/05/21 04:20:27;;;;;;;14.52;11.80;;;12.20;99.90;;;;;;5122941;28;20024;-90
2023/05/21 04:22:53;;;;;;;17.10;12.57;;;12.20;99.90;;;;;;5101098;28;20496;-90
2023/05/21 04:25:20;;;;;;;14.10;11.60;;;12.30;99.90;;;;;;5101475;28;20031;-87
2023/05/21 04:27:46;;;;;;;18.30;13.13;;;12.30;99.90;;;;;;5125407;28;20020;-89
2023/05/21 04:30:12;;;;;;;15.85;13.13;;;12.50;99.90;;;;;;5112078;27;20451;-89
2023/05/21 04:32:38;;;;;;;16.63;13.68;;;12.50;99.90;;;;;;5117177;28;20023;-90
2023/05/21 04:35:05;;;;;;;19.63;15.38;;;12.40;99.90;;;;;;5149382;27;20027;-90
2023/05/21 04:37:33;;;;;;;17.33;14.13;;;12.40;99.90;;;;;;5137155;27;20080;-91
2023/05/21 04:40:01;;;;;;;20.33;16.00;;;12.40;99.90;;;;;;5122548;28;20016;-85
2023/05/21 04:42:29;;;;;;;20.63;17.02;;;12.50;99.90;;;;;;5101432;28;20063;-82
2023/05/21 04:44:58;;;;;;;20.30;16.08;;;12.50;99.90;;;;;;5072306;28;20071;-88
2023/05/21 04:47:24;;;;;;;;;;;12.40;99.90;;;;;;5095663;28;20004;-90
2023/05/21 04:49:49;;;;;;;24.75;18.90;;;12.40;99.90;;;;;;5097347;28;19973;-90
2023/05/21 04:52:16;;;;;;;22.90;17.30;;;12.40;99.90;;;;;;5096558;28;20005;-90
2023/05/21 04:54:44;;;;;;;22.73;17.38;;;12.40;99.90;;;;;;5090903;28;20091;-89
2023/05/21 04:57:10;;;;;;;25.42;17.33;;;12.50;99.90;;;;;;5097146;28;20059;-82
2023/05/21 04:59:36;;;;;;;17.90;15.82;;;12.70;99.90;;;;;;5067315;28;20037;-87
2023/05/21 05:02:02;;;;;;;20.00;16.17;;;12.80;99.90;;;;;;5034786;28;20041;-87
2023/05/21 05:04:28;;;;;;;17.05;14.95;;;12.80;99.90;;;;;;5056381;28;20021;-87
2023/05/21 05:06:54;;;;;;;21.60;16.30;;;12.80;99.90;;;;;;5062077;28;20040;-87
2023/05/21 05:09:23;;;;;;;17.73;15.82;;;12.80;99.90;;;;;;5062137;28;20017;-89
2023/05/21 05:11:49;;;;;;;12.25;10.98;;;12.90;99.90;;;;;;5065728;28;20035;-88
2023/05/21 05:14:16;;;;;;;13.73;12.30;;;12.70;99.90;;;;;;5089979;28;20050;-90
2023/05/21 05:16:43;;;;;;;14.02;11.38;;;12.50;99.90;;;;;;5059879;28;20029;-89
2023/05/21 05:19:09;;;;;;;12.82;11.50;;;12.50;99.90;;;;;;5056442;28;20086;-90
2023/05/21 05:21:35;;;;;;;17.58;12.93;;;12.50;99.90;;;;;;5054127;28;20179;-87
2023/05/21 05:24:00;;;;;;;13.65;11.70;;;12.50;99.90;;;;;;5035917;28;20076;-88
2023/05/21 05:26:28;;;;;;;13.18;11.27;;;12.50;99.90;;;;;;5052976;28;20048;-89
2023/05/21 05:28:54;;;;;;;14.10;12.13;;;12.40;99.90;;;;;;5051362;28;20029;-88
2023/05/21 05:31:21;;;;;;;13.73;12.23;;;12.50;99.90;;;;;;5048431;28;20033;-87
2023/05/21 05:33:47;;;;;;;25.17;17.02;;;12.50;99.90;;;;;;5042645;28;20043;-86
2023/05/21 05:36:13;;;;;;;17.90;11.65;;;12.40;99.90;;;;;;5056161;28;20066;-84
2023/05/21 05:38:39;;;;;;;16.73;12.15;;;12.40;99.90;;;;;;5077892;28;20489;-85
2023/05/21 05:41:05;;;;;;;14.15;11.80;;;12.40;99.90;;;;;;5077618;28;20028;-88
2023/05/21 05:43:31;;;;;;;15.90;11.27;;;12.50;99.90;;;;;;5093937;28;20078;-88
2023/05/21 05:45:57;;;;;;;15.90;12.60;;;12.60;99.90;;;;;;5096146;28;20032;-87
2023/05/21 05:48:23;;;;;;;11.82;10.60;;;12.70;99.90;;;;;;5090222;28;20036;-86
2023/05/21 05:50:53;;;;;;;13.30;11.10;;;12.70;99.60;;;;;;5090163;28;20016;-86
2023/05/21 05:53:20;;;;;;;13.75;12.07;;;12.60;99.40;;;;;;5101982;28;20350;-89
2023/05/21 05:55:46;;;;;;;15.48;12.20;;;12.60;99.50;;;;;;5085647;28;20078;-89
2023/05/21 05:58:12;;;;;;;13.82;12.43;;;12.60;99.50;;;;;;5078380;28;20032;-89
2023/05/21 06:00:38;;;;;;;13.60;12.25;;;12.60;98.90;;;;;;5090688;28;20046;-88
2023/05/21 06:03:04;;;;;;;13.98;11.52;;;12.70;99.00;;;;;;5102156;28;20029;-88
2023/05/21 06:05:30;;;;;;;12.50;11.20;;;12.70;99.10;;;;;;5095804;28;20044;-91
2023/05/21 06:07:57;;;;;;;21.63;14.30;;;12.70;98.80;;;;;;5101120;28;20040;-90
2023/05/21 06:10:25;;;;;;;13.80;11.35;;;12.60;98.90;;;;;;5087878;28;20020;-88
2023/05/21 06:12:51;;;;;;;16.70;12.57;;;12.70;99.10;;;;;;5087413;28;20036;-87
2023/05/21 06:15:18;;;;;;;16.40;13.68;;;12.80;98.90;;;;;;5102868;28;20058;-87
2023/05/21 06:17:44;;;;;;;17.38;11.45;;;13.00;98.30;;;;;;5085708;28;20029;-89
2023/05/21 06:20:11;;;;;;;16.48;12.65;;;13.10;97.80;;;;;;5087049;28;20087;-91
2023/05/21 06:22:37;;;;;;;12.83;10.37;;;13.10;97.80;;;;;;5091412;28;20040;-91
2023/05/21 06:25:03;;;;;;;11.07;9.90;;;13.10;97.30;;;;;;5101308;28;20028;-90
2023/05/21 06:27:32;;;;;;;15.15;12.25;;;13.20;97.10;;;;;;5113992;28;20017;-91
2023/05/21 06:29:57;;;;;;;13.52;11.57;;;13.60;97.20;;;;;;5095508;28;20036;-88
2023/05/21 06:32:24;;;;;;;12.45;10.55;;;14.00;96.50;;;;;;5097515;28;20020;-89
2023/05/21 06:34:50;;;;;;;12.88;9.40;;;14.30;95.20;;;;;;5100454;28;20036;-88
2023/05/21 06:37:19;;;;;;;9.90;8.52;;;14.60;94.70;;;;;;5102750;28;20060;-87
2023/05/21 06:39:45;;;;;;;8.88;7.97;;;15.00;94.30;;;;;;5097227;28;20012;-88
2023/05/21 06:42:11;;;;;;;12.02;8.32;;;15.50;93.10;;;;;;5081838;28;20421;-88
2023/05/21 06:44:37;;;;;;;10.10;8.20;;;15.50;92.00;;;;;;5100103;28;20028;-86
2023/05/21 06:47:03;;;;;;;11.13;7.97;;;15.40;92.20;;;;;;5106710;28;20024;-90
2023/05/21 06:49:31;;;;;;;9.32;7.57;;;15.50;91.80;;;;;;5091888;28;20036;-90
2023/05/21 06:51:57;;;;;;;11.63;10.43;;;15.40;91.10;;;;;;5111110;28;20055;-86
2023/05/21 06:54:23;;;;;;;8.85;7.13;;;15.40;91.10;;;;;;5090728;28;20020;-85
2023/05/21 06:56:49;;;;;;;13.30;8.38;;;15.20;91.00;;;;;;5106960;28;20025;-87
2023/05/21 06:59:15;;;;;;;7.88;7.07;;;15.30;91.40;;;;;;5094773;28;20084;-88
2023/05/21 07:01:45;;;;;;;11.15;9.48;;;15.40;90.70;;;;;;5079146;28;20477;-89
2023/05/21 07:04:11;;;;;;;7.15;6.45;;;15.60;90.60;;;;;;5106031;28;20035;-86
2023/05/21 07:06:38;;;;;;;8.95;6.97;;;15.70;89.20;;;;;;5088929;28;20103;-88
2023/05/21 07:09:04;;;;;;;11.00;9.43;;;15.90;90.10;;;;;;5079240;28;20489;-87
2023/05/21 07:11:31;;;;;;;9.47;6.40;;;16.30;87.60;;;;;;5078667;28;20473;-88
2023/05/21 07:14:02;;;;;;;11.35;6.38;;;16.00;87.20;;;;;;5079274;28;20035;-89
2023/05/21 07:16:28;;;;;;;9.13;7.38;;;15.50;86.70;;;;;;5111390;28;20040;-90
2023/05/21 07:18:55;;;;;;;8.75;6.38;;;15.20;88.40;;;;;;5104866;28;20020;-90
2023/05/21 07:21:21;;;;;;;10.63;7.00;;;15.00;89.90;;;;;;5061824;28;20049;-87
2023/05/21 07:23:50;;;;;;;9.23;7.07;;;14.90;90.20;;;;;;5109791;28;20036;-89
2023/05/21 07:26:16;;;;;;;7.25;6.30;;;15.20;90.20;;;;;;5106509;28;20033;-88
2023/05/21 07:28:42;;;;;;;8.23;6.93;;;15.30;89.10;;;;;;5101061;28;20055;-90
2023/05/21 07:31:10;;;;;;;10.18;7.03;;;15.40;88.80;;;;;;5092367;28;20096;-88
2023/05/21 07:33:36;;;;;;;8.85;6.22;;;15.50;89.00;;;;;;5107905;28;20088;-90
2023/05/21 07:36:03;;;;;;;7.82;6.20;;;15.60;88.30;;;;;;5121459;28;20032;-90
2023/05/21 07:38:31;;;;;;;7.60;6.53;;;15.50;87.50;;;;;;5107446;28;20036;-89
2023/05/21 07:40:56;;;;;;;;;;;15.30;88.40;;;;;;5117775;28;20032;-90
2023/05/21 07:43:23;;;;;;;7.05;6.35;;;15.10;89.00;;;;;;5088651;28;19954;-87
2023/05/21 07:45:48;;;;;;;14.60;8.20;;;15.00;90.00;;;;;;5077977;28;20029;-87
2023/05/21 07:48:14;;;;;;;17.92;9.07;;;14.90;89.90;;;;;;5077548;28;20394;-86
2023/05/21 07:50:41;;;;;;;7.82;6.55;;;14.90;90.00;;;;;;5080121;28;20492;-87
2023/05/21 07:53:06;;;;;;;8.55;6.15;;;15.00;90.10;;;;;;5066831;28;20028;-88
2023/05/21 07:55:33;;;;;;;7.90;6.35;;;;;;;;;;5080175;28;20016;-88
2023/05/21 07:58:00;;;;;;;10.15;5.63;;;;;;;;;;5076752;28;20033;-89
2023/05/21 08:00:26;;;;;;;10.45;6.28;;;16.00;89.40;;;;;;5079286;28;20024;-89
2023/05/21 08:02:52;;;;;;;6.93;5.22;;;22.90;65.50;;;;;;5078420;28;20040;-89
2023/05/21 08:05:20;;;;;;;6.00;5.38;;;22.30;62.40;;;;;;5081489;28;20052;-91
2023/05/21 08:07:46;;;;;;;6.55;5.63;;;21.20;63.00;;;;;;5077788;28;20047;-89
2023/05/21 08:10:12;;;;;;;7.15;5.53;;;19.80;66.40;;;;;;5087381;28;20020;-88
2023/05/21 08:12:38;;;;;;;8.55;6.13;;;19.00;69.00;;;;;;5079757;28;20099;-88
2023/05/21 08:15:04;;;;;;;6.85;5.20;;;18.70;70.50;;;;;;5101031;28;20028;-90
2023/05/21 08:17:30;;;;;;;6.53;5.65;;;18.90;69.70;;;;;;5093907;28;20509;-89
2023/05/21 08:19:56;;;;;;;11.00;5.75;;;19.80;66.40;;;;;;5084380;28;20028;-89
2023/05/21 08:22:27;;;;;;;6.68;4.78;;;19.30;66.90;;;;;;5080888;28;20044;-91
2023/05/21 08:24:52;;;;;;;8.48;5.75;;;18.80;68.10;;;;;;5091037;28;20063;-88
2023/05/21 08:27:18;;;;;;;7.88;5.35;;;18.50;68.80;;;;;;5097293;28;20024;-90
2023/05/21 08:29:46;;;;;;;5.70;4.82;;;18.00;69.20;;;;;;5073404;28;20115;-90
2023/05/21 08:32:12;;;;;;;7.50;5.55;;;18.70;69.30;;;;;;5086685;28;20100;-87
2023/05/21 08:34:38;;;;;;;7.22;5.03;;;18.90;68.20;;;;;;5079686;28;20028;-91
2023/05/21 08:37:04;;;;;;;6.97;5.20;;;18.70;68.10;;;;;;5080262;28;20062;-88
2023/05/21 08:39:30;;;;;;;5.13;4.60;;;18.50;68.80;;;;;;5090618;28;20037;-84
2023/05/21 08:42:08;;;;;;;5.55;5.05;;;18.40;68.90;;;;;;5082047;28;20132;-88
2023/05/21 08:44:36;;;;;;;9.15;5.45;;;18.00;69.50;;;;;;5067933;28;20047;-85
2023/05/21 08:47:06;;;;;;;5.88;5.30;;;18.90;70.80;;;;;;5072587;28;20025;-88
2023/05/21 08:49:34;;;;;;;8.75;4.45;;;22.00;63.80;;;;;;5072790;28;20024;-91
2023/05/21 08:52:01;;;;;;;7.05;4.68;;;24.10;55.20;;;;;;5081256;28;20062;-88
2023/05/21 08:54:27;;;;;;;5.13;3.60;;;23.50;54.50;;;;;;5082671;28;20013;-86
2023/05/21 08:56:56;;;;;;;7.20;4.15;;;22.80;53.90;;;;;;5081344;28;20174;-89
2023/05/21 08:59:23;;;;;;;4.60;3.20;;;23.10;54.20;;;;;;5084832;28;20410;-85
2023/05/21 09:01:49;;;;;;;3.97;3.58;;;24.20;52.00;;;;;;5086351;28;20050;-87
2023/05/21 09:04:16;;;;;;;4.10;3.22;;;25.10;49.40;;;;;;5078880;28;20021;-86
2023/05/21 09:06:43;;;;;;;4.45;3.25;;;24.80;49.20;;;;;;5068652;28;20024;-85
2023/05/21 09:09:19;;;;;;;5.15;3.17;;;24.20;50.20;;;;;;5077421;28;20077;-84
2023/05/21 09:11:46;;;;;;;8.00;4.00;;;24.80;49.80;;;;;;5076234;28;20103;-87
2023/05/21 09:14:13;;;;;;;5.35;3.65;;;25.70;48.60;;;;;;5077381;28;20078;-90
2023/05/21 09:16:40;;;;;;;5.00;3.78;;;;;;;;;;5058592;28;20550;-87
2023/05/21 09:19:06;;;;;;;5.55;3.30;;;27.10;46.40;;;;;;5076310;28;20020;-84
2023/05/21 09:21:32;;;;;;;3.73;2.83;;;27.60;45.40;;;;;;5078532;28;20080;-86
2023/05/21 09:23:59;;;;;;;9.13;3.85;;;28.40;43.30;;;;;;5086455;28;20028;-86
2023/05/21 09:26:25;;;;;;;3.97;3.05;;;29.80;41.70;;;;;;5093770;28;20012;-89
2023/05/21 09:28:57;;;;;;;7.80;3.00;;;31.60;39.20;;;;;;5091259;28;20389;-90
2023/05/21 09:31:24;;;;;;;6.70;4.00;;;32.80;36.30;;;;;;5078951;28;20033;-87
2023/05/21 09:33:50;;;;;;;7.05;3.83;;;32.10;35.80;;;;;;5079008;28;20036;-85
2023/05/21 09:36:19;;;;;;;8.70;4.20;;;29.40;37.30;;;;;;5090238;28;20025;-87
2023/05/21 09:38:46;;;;;;;5.93;3.75;;;27.20;40.10;;;;;;5089248;28;20024;-89
2023/05/21 09:41:13;;;;;;;6.80;3.50;;;25.60;42.10;;;;;;5086632;28;20100;-88
2023/05/21 09:43:42;;;;;;;7.90;4.93;;;24.10;44.40;;;;;;5076357;28;20075;-87
2023/05/21 09:46:09;;;;;;;6.55;4.80;;;24.10;47.00;;;;;;5093892;28;20021;-89
2023/05/21 09:48:40;;;;;;;7.10;4.30;;;24.80;44.50;;;;;;5079827;28;20429;-89
2023/05/21 09:51:30;;;;;;;6.85;4.30;;;;;;;;;;5070231;28;20016;-88
2023/05/21 09:54:05;;;;;;;4.53;3.42;;;;;;;;;;5016819;28;20066;-86
2023/05/21 09:56:31;;;;;;;3.97;3.08;;;;;;;;;;5028216;28;20038;-88
2023/05/21 09:59:00;;;;;;;3.60;3.30;;;24.70;45.00;;;;;;5026177;28;20120;-87
2023/05/21 10:01:27;;;;;;;8.25;3.17;;;25.40;42.30;;;;;;5025930;28;20026;-88
2023/05/21 10:03:55;;;;;;;;;;;23.90;44.00;;;;;;5025407;28;20029;-89
2023/05/21 10:06:22;;;;;;;7.22;3.85;;;22.70;45.90;;;;;;5027645;28;19909;-90
2023/05/21 10:08:52;;;;;;;8.63;4.53;;;21.70;48.30;;;;;;5003190;28;20069;-88
2023/05/21 10:11:21;;;;;;;7.00;4.30;;;21.00;50.00;;;;;;5004862;28;20083;-85
2023/05/21 10:13:52;;;;;;;7.45;4.47;;;20.30;51.70;;;;;;5018120;28;20042;-80
2023/05/21 10:16:18;;;;;;;5.60;4.38;;;19.80;53.10;;;;;;5014810;28;20465;-81
2023/05/21 10:18:45;;;;;;;5.35;3.97;;;19.40;53.70;;;;;;5025777;28;20594;-80
2023/05/21 10:21:12;;;;;;;5.82;3.67;;;19.10;54.20;;;;;;5027081;28;20034;-79
2023/05/21 10:23:39;;;;;;;8.70;4.07;;;;;;;;;;5032937;28;20025;-80
2023/05/21 10:26:06;;;;;;;7.10;4.40;;;18.40;55.80;;;;;;5033995;28;20045;-80
2023/05/21 10:28:32;;;;;;;6.07;4.10;;;17.60;58.60;;;;;;5017861;28;20509;-80
2023/05/21 10:30:59;;;;;;;6.10;3.85;;;17.50;59.20;;;;;;5066387;28;20409;-81
2023/05/21 10:33:26;;;;;;;4.30;3.78;;;17.60;59.50;;;;;;5080508;28;20033;-79
2023/05/21 10:35:53;;;;;;;;;;;17.50;60.30;;;;;;5093987;28;20020;-80
2023/05/21 10:38:19;;;;;;;5.32;4.72;;;17.60;59.90;;;;;;5084878;28;19911;-78
2023/05/21 10:40:47;;;;;;;5.97;4.93;;;17.70;60.30;;;;;;5084580;28;20032;-78
2023/05/21 10:43:47;;;;;;;7.90;5.05;;;18.00;60.20;;;;;;5088912;28;20078;-80
2023/05/21 10:46:13;;;;;;;8.35;4.80;;;18.50;59.80;;;;;;5067158;28;20103;-78
2023/05/21 10:48:57;;;;;;;7.30;5.60;;;18.50;58.90;;;;;;5089923;28;20124;-78
2023/05/21 10:51:29;;;;;;;7.05;4.85;;;18.40;59.80;;;;;;5095520;28;20032;-79
2023/05/21 10:54:13;;;;;;;11.00;5.60;;;18.50;59.60;;;;;;5094070;28;20455;-78
2023/05/21 10:56:59;;;;;;;6.25;5.65;;;18.20;58.90;;;;;;5094988;28;20019;-81
2023/05/21 10:59:42;;;;;;;7.40;6.28;;;18.00;60.10;;;;;;5080836;28;20176;-79
2023/05/21 11:02:13;;;;;;;7.68;6.25;;;18.10;60.40;;;;;;5095211;28;20028;-81
2023/05/21 11:04:41;;;;;;;6.18;4.88;;;18.30;60.20;;;;;;5073398;28;20442;-78
2023/05/21 11:07:07;;;;;;;7.82;6.63;;;18.70;58.80;;;;;;5093431;28;20020;-80
2023/05/21 11:09:33;;;;;;;6.35;5.75;;;19.00;58.70;;;;;;5072166;28;20027;-79
2023/05/21 11:12:00;;;;;;;10.77;6.30;;;19.00;58.10;;;;;;5092184;28;20412;-79
2023/05/21 11:14:34;;;;;;;7.75;6.70;;;18.50;59.60;;;;;;5084496;28;20021;-79
2023/05/21 11:17:37;;;;;;;8.75;5.97;;;18.50;59.30;;;;;;5081222;28;20024;-79
2023/05/21 11:20:16;;;;;;;8.15;6.18;;;18.70;59.40;;;;;;5084525;28;20035;-80
2023/05/21 11:22:41;;;;;;;10.90;6.88;;;19.00;58.40;;;;;;5092892;28;20484;-80
2023/05/21 11:25:07;;;;;;;11.70;5.88;;;19.30;57.90;;;;;;5091719;28;20048;-81
2023/05/21 11:27:40;;;;;;;6.00;4.50;;;19.60;57.40;;;;;;5095032;28;20388;-80
2023/05/21 11:30:07;;;;;;;5.65;4.00;;;19.80;55.60;;;;;;5094752;28;20043;-81
2023/05/21 11:33:00;;;;;;;;;;;20.10;54.90;;;;;;5093945;28;20040;-79
2023/05/21 11:35:27;;;;;;;5.38;4.05;;;20.50;55.10;;;;;;5082854;28;19997;-80
2023/05/21 11:37:53;;;;;;;6.18;3.33;;;20.90;53.20;;;;;;5092700;28;20091;-80
2023/05/21 11:40:28;;;;;;;4.07;2.83;;;20.80;52.30;;;;;;5091204;28;20081;-82
2023/05/21 11:42:55;;;;;;;4.18;2.38;;;20.50;52.20;;;;;;5108312;27;20050;-79
2023/05/21 11:45:31;;;;;;;2.97;2.58;;;19.80;52.60;;;;;;5116694;27;20023;-80
2023/05/21 11:47:57;;;;;;;5.85;3.15;;;19.20;54.20;;;;;;5138232;27;20054;-81
2023/05/21 11:50:24;;;;;;;4.80;2.38;;;18.90;55.30;;;;;;5118745;27;20034;-80
2023/05/21 11:52:51;;;;;;;6.20;3.45;;;19.10;56.30;;;;;;5122810;27;20031;-82
2023/05/21 11:55:24;;;;;;;3.65;3.03;;;19.40;55.40;;;;;;5135467;27;20031;-83
2023/05/21 11:57:53;;;;;;;5.78;3.35;;;19.60;53.60;;;;;;5105788;27;20451;-80
2023/05/21 12:00:19;;;;;;;5.03;3.25;;;19.20;54.80;;;;;;5133760;27;20027;-81
2023/05/21 12:02:47;;;;;;;6.55;4.38;;;19.10;55.70;;;;;;5135472;27;20023;-82
2023/05/21 12:05:13;;;;;;;5.53;3.15;;;19.00;55.70;;;;;;5136616;27;20075;-81
2023/05/21 12:07:39;;;;;;;4.82;3.03;;;18.80;56.40;;;;;;5136993;27;20079;-80
2023/05/21 12:10:05;;;;;;;6.35;3.05;;;18.70;56.70;;;;;;5099805;27;20113;-80
2023/05/21 12:12:31;;;;;;;8.52;3.90;;;18.80;57.10;;;;;;5146726;27;20372;-82
2023/05/21 12:14:57;;;;;;;4.63;4.07;;;18.70;57.30;;;;;;5147801;27;20027;-83
2023/05/21 12:17:25;;;;;;;6.82;4.18;;;18.30;58.60;;;;;;5140398;27;20101;-80
2023/05/21 12:19:52;;;;;;;;;;;17.80;60.80;;;;;;5132973;27;20478;-82
2023/05/21 12:22:18;;;;;;;;;;;17.40;62.00;;;;;;5135345;27;19907;-79
2023/05/21 12:24:44;;;;;;;7.80;6.03;;;17.10;63.20;;;;;;5116906;27;19903;-82
2023/05/21 12:27:12;;;;;;;5.40;4.90;;;16.90;64.70;;;;;;5124447;27;20480;-82
2023/05/21 12:29:42;;;;;;;8.68;5.72;;;17.00;65.00;;;;;;5136616;27;20455;-81
2023/05/21 12:32:12;;;;;;;8.48;5.10;;;17.00;65.30;;;;;;5119551;27;20364;-80
2023/05/21 12:34:44;;;;;;;5.70;4.13;;;17.00;65.60;;;;;;5135080;27;20026;-81
2023/05/21 12:37:34;;;;;;;6.50;4.72;;;17.00;65.60;;;;;;5125269;27;20023;-80
2023/05/21 12:40:06;;;;;;;7.75;5.10;;;16.90;65.70;;;;;;5134849;27;20113;-80
2023/05/21 12:42:35;;;;;;;10.60;6.82;;;17.00;66.10;;;;;;5133787;27;20477;-81
2023/05/21 12:45:08;;;;;;;18.30;9.25;;;17.20;65.90;;;;;;5127217;27;20023;-80
2023/05/21 12:47:35;;;;;;;9.98;5.78;;;17.40;66.20;;;;;;5134033;27;20019;-79